createdAt,value
2022-12-19T00:00:37.720Z,98833.13
2022-12-19T00:03:07.551Z,98828.00
2022-12-19T00:05:39.217Z,98830.66
2022-12-19T00:08:17.191Z,98840.22
2022-12-19T00:10:55.883Z,98805.56
2022-12-19T00:13:24.249Z,98822.94
2022-12-19T00:15:52.883Z,98818.53
2022-12-19T00:18:22.937Z,98817.91
2022-12-19T00:21:02.617Z,98812.63
2022-12-19T00:23:33.663Z,98805.56
2022-12-19T00:26:13.925Z,98795.16
2022-12-19T00:28:43.316Z,98796.94
2022-12-19T00:31:15.667Z,98798.63
2022-12-19T00:33:45.933Z,98789.91
2022-12-19T00:36:18.119Z,98782.00
2022-12-19T00:38:52.663Z,98752.56
2022-12-19T00:41:23.708Z,98758.59
2022-12-19T00:43:54.893Z,98777.75
2022-12-19T00:46:23.377Z,98780.28
2022-12-19T00:48:53.131Z,98808.84
2022-12-19T00:51:24.157Z,98819.25
2022-12-19T00:53:54.680Z,98818.19
2022-12-19T00:56:25.511Z,98815.50
2022-12-19T00:58:55.272Z,98844.91
2022-12-19T01:01:27.202Z,98826.63
2022-12-19T01:04:27.322Z,98806.59
2022-12-19T01:06:47.268Z,98812.56
2022-12-19T01:09:16.800Z,98822.94
2022-12-19T01:12:03.280Z,98821.09
2022-12-19T01:14:31.518Z,98827.03
2022-12-19T01:16:59.778Z,98836.47
2022-12-19T01:19:29.836Z,98824.19
2022-12-19T01:21:58.100Z,98822.34
2022-12-19T01:24:27.272Z,98818.78
2022-12-19T01:26:55.507Z,98813.47
2022-12-19T01:29:23.821Z,98797.00
2022-12-19T01:31:52.104Z,98785.69
2022-12-19T01:34:20.439Z,98773.47
2022-12-19T01:36:50.386Z,98781.28
2022-12-19T01:39:18.697Z,98776.09
2022-12-19T01:41:46.869Z,98774.31
2022-12-19T01:44:15.137Z,98775.16
2022-12-19T01:46:47.509Z,98775.13
2022-12-19T01:49:25.033Z,98775.16
2022-12-19T01:51:58.075Z,98762.16
2022-12-19T01:54:31.362Z,98744.78
2022-12-19T01:57:01.119Z,98748.16
2022-12-19T01:59:34.921Z,98746.41
2022-12-19T02:02:13.174Z,98740.34
2022-12-19T02:04:45.934Z,98746.38
2022-12-19T02:07:16.585Z,98747.22
2022-12-19T02:09:46.850Z,98773.22
2022-12-19T02:12:15.510Z,98806.16
2022-12-19T02:14:44.290Z,98820.94
2022-12-19T02:17:20.853Z,98820.09
2022-12-19T02:20:37.426Z,98828.75
2022-12-19T02:23:34.431Z,98794.94
2022-12-19T02:26:28.069Z,98787.13
2022-12-19T02:29:14.485Z,98757.66
2022-12-19T02:31:50.156Z,98741.16
2022-12-19T02:34:26.512Z,98721.13
2022-12-19T02:36:58.957Z,98715.06
2022-12-19T02:39:34.883Z,98715.06
2022-12-19T02:42:05.001Z,98714.16
2022-12-19T02:44:38.667Z,98715.00
2022-12-19T02:47:10.485Z,98711.53
2022-12-19T02:49:39.819Z,98728.03
2022-12-19T02:52:12.475Z,98744.47
2022-12-19T02:54:44.879Z,98747.78
2022-12-19T02:57:21.664Z,98765.97
2022-12-19T03:00:03.854Z,98781.50
2022-12-19T03:02:42.355Z,98767.56
2022-12-19T03:05:23.678Z,98763.16
2022-12-19T03:07:59.175Z,98745.78
2022-12-19T03:10:39.002Z,98757.84
2022-12-19T03:13:13.322Z,98748.34
2022-12-19T03:15:41.989Z,98754.38
2022-12-19T03:18:12.755Z,98756.94
2022-12-19T03:20:48.628Z,98766.41
2022-12-19T03:23:17.814Z,98777.66
2022-12-19T03:25:52.205Z,98769.78
2022-12-19T03:28:25.881Z,98768.88
2022-12-19T03:30:55.402Z,98767.13
2022-12-19T03:33:27.030Z,98782.63
2022-12-19T03:35:58.581Z,98788.63
2022-12-19T03:38:29.626Z,98796.41
2022-12-19T03:40:59.111Z,98796.28
2022-12-19T03:43:28.935Z,98792.81
2022-12-19T03:46:02.847Z,98796.13
2022-12-19T03:48:39.615Z,98789.13
2022-12-19T03:51:18.530Z,98793.41
2022-12-19T03:53:59.439Z,98786.41
2022-12-19T03:56:36.385Z,98794.16
2022-12-19T03:59:10.996Z,98800.16
2022-12-19T04:01:41.573Z,98804.50
2022-12-19T04:04:12.066Z,98811.34
2022-12-19T04:06:42.207Z,98803.47
2022-12-19T04:09:11.526Z,98807.72
2022-12-19T04:11:46.546Z,98816.34
2022-12-19T04:14:21.114Z,98831.06
2022-12-19T04:16:56.797Z,98827.53
2022-12-19T04:19:33.255Z,98813.69
2022-12-19T04:22:09.105Z,98811.91
2022-12-19T04:24:41.183Z,98814.50
2022-12-19T04:27:11.909Z,98811.94
2022-12-19T04:29:40.831Z,98825.00
2022-12-19T04:32:10.631Z,98837.97
2022-12-19T04:34:43.027Z,98820.63
2022-12-19T04:37:12.587Z,98810.22
2022-12-19T04:39:41.121Z,98804.06
2022-12-19T04:42:09.366Z,98823.19
2022-12-19T04:44:37.799Z,98817.09
2022-12-19T04:47:06.107Z,98838.81
2022-12-19T04:49:34.395Z,98887.56
2022-12-19T04:52:04.202Z,98830.31
2022-12-19T04:54:33.937Z,98871.34
2022-12-19T04:57:02.240Z,98855.69
2022-12-19T04:59:31.473Z,98867.00
2022-12-19T05:01:59.912Z,98880.06
2022-12-19T05:04:28.707Z,98880.06
2022-12-19T05:06:57.566Z,98816.72
2022-12-19T05:09:28.295Z,98855.91
2022-12-19T05:11:56.551Z,98819.31
2022-12-19T05:14:24.944Z,98795.00
2022-12-19T05:16:58.892Z,98805.47
2022-12-19T05:19:29.789Z,98843.69
2022-12-19T05:21:58.299Z,98823.72
2022-12-19T05:24:27.992Z,98812.47
2022-12-19T05:26:56.258Z,98868.94
2022-12-19T05:29:24.650Z,98801.41
2022-12-19T05:31:53.916Z,98861.69
2022-12-19T05:34:22.317Z,98857.25
2022-12-19T05:36:50.576Z,98844.94
2022-12-19T05:39:18.842Z,98839.69
2022-12-19T05:41:49.317Z,98831.03
2022-12-19T05:44:17.895Z,98841.41
2022-12-19T05:46:46.182Z,98805.69
2022-12-19T05:49:18.731Z,98806.59
2022-12-19T05:51:48.410Z,98815.28
2022-12-19T05:54:16.872Z,98804.97
2022-12-19T05:56:45.139Z,98799.72
2022-12-19T05:59:14.776Z,98763.22
2022-12-19T06:01:43.179Z,98792.72
2022-12-19T06:04:11.394Z,98753.72
2022-12-19T06:06:39.653Z,98791.28
2022-12-19T06:09:08.228Z,98758.56
2022-12-19T06:11:36.500Z,98787.03
2022-12-19T06:14:04.750Z,98724.69
2022-12-19T06:16:34.398Z,98723.66
2022-12-19T06:19:02.697Z,98711.38
2022-12-19T06:21:30.970Z,98735.66
2022-12-19T06:23:59.212Z,98750.41
2022-12-19T06:26:27.566Z,98802.41
2022-12-19T06:28:57.165Z,98895.81
2022-12-19T06:31:26.394Z,98861.69
2022-12-19T06:33:56.861Z,98863.28
2022-12-19T06:36:28.474Z,98883.88
2022-12-19T06:38:58.929Z,98873.34
2022-12-19T06:41:44.964Z,98867.16
2022-12-19T06:44:15.999Z,98841.81
2022-12-19T06:46:45.316Z,98848.00
2022-12-19T06:49:15.343Z,98846.00
2022-12-19T06:51:43.641Z,98849.31
2022-12-19T06:54:12.292Z,98846.66
2022-12-19T06:56:42.508Z,98843.03
2022-12-19T06:59:15.057Z,98838.63
2022-12-19T07:01:57.004Z,98834.97
2022-12-19T07:04:32.486Z,98818.41
2022-12-19T07:07:01.304Z,98826.28
2022-12-19T07:09:30.852Z,98834.81
2022-12-19T07:11:59.135Z,98831.28
2022-12-19T07:14:27.455Z,98836.53
2022-12-19T07:16:59.265Z,98836.38
2022-12-19T07:19:29.733Z,98867.56
2022-12-19T07:21:58.462Z,98862.34
2022-12-19T07:24:26.712Z,98850.94
2022-12-19T07:26:55.023Z,98847.38
2022-12-19T07:29:23.340Z,98862.03
2022-12-19T07:31:51.615Z,98854.97
2022-12-19T07:34:20.129Z,98866.16
2022-12-19T07:36:49.801Z,98851.28
2022-12-19T07:39:18.063Z,98846.81
2022-12-19T07:41:46.353Z,98861.44
2022-12-19T07:44:16.506Z,98867.41
2022-12-19T07:46:45.103Z,98878.59
2022-12-19T07:49:16.961Z,98841.19
2022-12-19T07:51:49.257Z,98836.84
2022-12-19T07:54:17.537Z,98841.81
2022-12-19T07:56:46.424Z,98856.56
2022-12-19T07:59:14.786Z,98868.59
2022-12-19T08:01:43.137Z,98876.28
2022-12-19T08:04:11.526Z,98885.75
2022-12-19T08:06:41.577Z,98889.94
2022-12-19T08:09:11.329Z,98880.28
2022-12-19T08:11:40.054Z,98865.41
2022-12-19T08:14:08.322Z,98878.41
2022-12-19T08:16:55.635Z,98860.97
2022-12-19T08:19:27.583Z,98859.16
2022-12-19T08:21:55.996Z,98857.34
2022-12-19T08:24:25.585Z,98863.34
2022-12-19T08:26:53.817Z,98850.25
2022-12-19T08:29:22.515Z,98857.16
2022-12-19T08:31:50.925Z,98868.41
2022-12-19T08:34:19.283Z,98863.13
2022-12-19T08:36:47.608Z,98869.13
2022-12-19T08:39:16.022Z,98859.47
2022-12-19T08:41:45.775Z,98861.22
2022-12-19T08:44:14.112Z,98855.94
2022-12-19T08:46:48.103Z,98854.06
2022-12-19T08:49:18.731Z,98860.94
2022-12-19T08:51:47.082Z,98867.75
2022-12-19T08:54:15.733Z,98856.28
2022-12-19T08:56:46.873Z,98858.75
2022-12-19T08:59:22.181Z,98863.88
2022-12-19T09:02:00.288Z,98853.28
2022-12-19T09:05:57.509Z,98846.25
2022-12-19T09:07:18.147Z,98835.75
2022-12-19T09:09:46.636Z,98839.19
2022-12-19T09:12:17.228Z,98835.75
2022-12-19T09:14:45.860Z,98839.19
2022-12-19T09:17:14.331Z,98829.53
2022-12-19T09:19:44.528Z,98831.09
2022-12-19T09:22:17.315Z,98824.91
2022-12-19T09:24:45.793Z,98830.06
2022-12-19T09:27:15.621Z,98834.28
2022-12-19T09:29:44.733Z,98825.38
2022-12-19T09:32:13.470Z,98827.81
2022-12-19T09:34:41.841Z,98825.00
2022-12-19T09:37:16.258Z,98824.69
2022-12-19T09:39:46.651Z,98812.28
2022-12-19T09:42:42.604Z,98810.44
2022-12-19T09:45:41.148Z,98805.94
2022-12-19T09:48:24.147Z,98796.28
2022-12-19T09:51:10.601Z,98794.38
2022-12-19T09:53:54.424Z,98792.41
2022-12-19T09:56:28.276Z,98798.41
2022-12-19T09:59:06.263Z,98791.22
2022-12-19T10:01:53.525Z,98785.06
2022-12-19T10:04:22.910Z,98788.53
2022-12-19T10:07:07.916Z,98783.03
2022-12-19T10:12:15.474Z,98766.28
2022-12-19T10:12:51.322Z,98756.63
2022-12-19T10:15:43.817Z,98750.31
2022-12-19T10:18:34.244Z,98744.97
2022-12-19T10:21:08.877Z,98737.84
2022-12-19T10:24:04.511Z,98735.09
2022-12-19T10:26:43.327Z,98721.78
2022-12-19T10:29:46.830Z,98723.34
2022-12-19T10:32:26.490Z,98713.59
2022-12-19T10:34:55.092Z,98733.31
2022-12-19T10:37:35.248Z,98728.66
2022-12-19T10:40:27.240Z,98720.59
2022-12-19T10:43:10.500Z,98730.78
2022-12-19T10:45:44.248Z,98723.47
2022-12-19T10:48:20.033Z,98731.03
2022-12-19T10:50:51.471Z,98729.91
2022-12-19T10:53:29.704Z,98735.47
2022-12-19T10:56:03.915Z,98732.47
2022-12-19T10:58:36.650Z,98733.75
2022-12-19T11:01:12.916Z,98720.34
2022-12-19T11:03:46.457Z,98720.91
2022-12-19T11:06:45.256Z,98727.63
2022-12-19T11:09:28.908Z,98718.81
2022-12-19T11:16:13.104Z,98721.28
2022-12-19T11:19:43.709Z,98714.34
2022-12-19T11:26:42.541Z,98719.53
2022-12-19T11:29:26.685Z,98716.84
2022-12-19T11:29:30.356Z,98714.13
2022-12-19T11:30:39.549Z,98705.34
2022-12-19T11:32:43.550Z,98701.81
2022-12-19T11:35:25.254Z,98695.56
2022-12-19T11:38:08.483Z,98687.78
2022-12-19T11:40:48.452Z,98679.69
2022-12-19T11:43:43.837Z,98678.06
2022-12-19T11:46:31.795Z,98670.06
2022-12-19T11:49:05.741Z,98671.66
2022-12-19T11:51:42.751Z,98657.53
2022-12-19T11:54:19.827Z,98654.69
2022-12-19T11:56:48.123Z,98651.25
2022-12-19T11:59:21.004Z,98650.31
2022-12-19T12:02:23.844Z,98643.38
2022-12-19T12:05:10.693Z,98645.91
2022-12-19T12:08:45.617Z,98634.50
2022-12-19T12:16:11.704Z,98639.66
2022-12-19T12:22:53.854Z,98642.44
2022-12-19T12:30:18.073Z,98637.28
2022-12-19T12:31:22.106Z,98637.13
2022-12-19T12:31:26.566Z,98634.56
2022-12-19T12:31:38.594Z,98632.72
2022-12-19T12:31:58.824Z,98633.41
2022-12-19T12:35:56.309Z,98637.50
2022-12-19T12:36:51.511Z,98641.72
2022-12-19T12:38:24.605Z,98640.63
2022-12-19T12:41:09.825Z,98648.25
2022-12-19T12:43:59.346Z,98644.44
2022-12-19T12:46:33.281Z,98640.75
2022-12-19T12:49:06.288Z,98650.06
2022-12-19T12:51:36.922Z,98630.59
2022-12-19T12:54:09.607Z,98627.88
2022-12-19T12:56:40.465Z,98620.72
2022-12-19T12:59:24.615Z,98617.94
2022-12-19T13:01:56.196Z,98613.53
2022-12-19T13:04:32.799Z,98609.97
2022-12-19T13:07:30.723Z,98606.41
2022-12-19T13:10:22.447Z,98616.25
2022-12-19T13:13:14.132Z,98615.31
2022-12-19T13:15:44.585Z,98615.13
2022-12-19T13:18:40.554Z,98602.03
2022-12-19T13:21:10.916Z,98601.94
2022-12-19T13:24:16.199Z,98584.50
2022-12-19T13:26:52.340Z,98587.13
2022-12-19T13:29:53.834Z,98584.59
2022-12-19T13:32:24.262Z,98583.75
2022-12-19T13:35:17.592Z,98591.63
2022-12-19T13:39:59.353Z,98585.59
2022-12-19T13:40:58.041Z,98571.72
2022-12-19T13:43:47.846Z,98573.41
2022-12-19T13:46:34.048Z,98577.81
2022-12-19T13:49:08.242Z,98574.28
2022-12-19T13:51:47.297Z,98576.03
2022-12-19T13:54:24.088Z,98583.75
2022-12-19T13:56:53.624Z,98587.97
2022-12-19T13:59:25.366Z,98580.78
2022-12-19T14:01:56.413Z,98582.56
2022-12-19T14:04:31.188Z,98582.56
2022-12-19T14:07:02.734Z,98575.44
2022-12-19T14:11:27.824Z,98565.03
2022-12-19T14:13:39.995Z,98580.69
2022-12-19T14:15:36.851Z,98589.50
2022-12-19T14:18:45.165Z,98577.31
2022-12-19T14:22:04.417Z,98572.06
2022-12-19T14:24:17.377Z,98570.38
2022-12-19T14:28:18.229Z,98568.59
2022-12-19T14:30:29.095Z,98569.44
2022-12-19T14:33:45.483Z,98564.19
2022-12-19T14:36:10.440Z,98555.50
2022-12-19T14:39:23.497Z,98555.41
2022-12-19T14:41:08.820Z,98559.78
2022-12-19T14:43:59.409Z,98558.84
2022-12-19T14:54:10.512Z,98557.09
2022-12-19T14:54:13.810Z,98555.31
2022-12-19T14:54:25.926Z,98550.97
2022-12-19T14:56:13.564Z,98560.66
2022-12-19T14:58:52.515Z,98558.03
2022-12-19T15:01:25.121Z,98559.78
2022-12-19T15:04:49.350Z,98558.84
2022-12-19T15:07:08.076Z,98574.44
2022-12-19T15:11:09.164Z,98566.56
2022-12-19T15:14:50.871Z,98560.56
2022-12-19T15:15:59.816Z,98558.09
2022-12-19T15:18:39.079Z,98561.56
2022-12-19T15:21:11.087Z,98559.88
2022-12-19T15:23:39.497Z,98560.03
2022-12-19T15:26:16.283Z,98560.22
2022-12-19T15:28:49.610Z,98563.88
2022-12-19T15:31:34.843Z,98568.25
2022-12-19T15:34:46.623Z,98572.72
2022-12-19T15:37:13.049Z,98577.22
2022-12-19T15:39:42.121Z,98567.72
2022-12-19T15:42:21.911Z,98579.16
2022-12-19T15:44:52.482Z,98569.00
2022-12-19T15:47:31.259Z,98575.19
2022-12-19T15:50:02.771Z,98558.84
2022-12-19T15:52:31.936Z,98555.53
2022-12-19T15:55:00.237Z,98543.44
2022-12-19T15:57:32.760Z,98539.31
2022-12-19T16:00:03.278Z,98547.34
2022-12-19T16:05:24.187Z,98560.84
2022-12-19T16:07:53.137Z,98573.19
2022-12-19T16:10:21.901Z,98567.13
2022-12-19T16:12:55.428Z,98569.81
2022-12-19T16:15:27.743Z,98562.84
2022-12-19T16:17:58.120Z,98576.91
2022-12-19T16:20:29.455Z,98582.16
2022-12-19T16:22:58.202Z,98580.38
2022-12-19T16:25:34.569Z,98573.50
2022-12-19T16:28:07.079Z,98572.75
2022-12-19T16:30:36.726Z,98578.91
2022-12-19T16:33:17.427Z,98576.38
2022-12-19T16:38:34.809Z,98581.03
2022-12-19T16:41:03.461Z,98585.41
2022-12-19T16:43:37.877Z,98581.09
2022-12-19T16:46:08.729Z,98575.16
2022-12-19T16:48:37.214Z,98581.34
2022-12-19T16:51:05.824Z,98577.16
2022-12-19T16:53:34.654Z,98557.22
2022-12-19T16:56:04.702Z,98559.09
2022-12-19T16:58:39.646Z,98554.09
2022-12-19T17:01:11.855Z,98532.53
2022-12-19T17:03:42.874Z,98547.38
2022-12-19T17:06:14.125Z,98564.13
2022-12-19T17:08:42.981Z,98576.28
2022-12-19T17:11:24.585Z,98582.44
2022-12-19T17:14:00.572Z,98571.13
2022-12-19T17:16:31.080Z,98552.78
2022-12-19T17:19:00.165Z,98555.47
2022-12-19T17:21:28.557Z,98558.94
2022-12-19T17:23:57.005Z,98560.72
2022-12-19T17:26:25.377Z,98575.53
2022-12-19T17:28:55.862Z,98571.19
2022-12-19T17:31:28.131Z,98563.56
2022-12-19T17:33:58.050Z,98582.59
2022-12-19T17:36:34.626Z,98572.13
2022-12-19T17:39:03.601Z,98572.06
2022-12-19T17:41:32.525Z,98564.44
2022-12-19T17:44:02.242Z,98567.75
2022-12-19T17:46:32.827Z,98558.19
2022-12-19T17:49:01.165Z,98549.56
2022-12-19T17:51:29.488Z,98575.59
2022-12-19T17:53:57.947Z,98579.13
2022-12-19T17:56:26.267Z,98576.50
2022-12-19T17:58:55.774Z,98580.84
2022-12-19T18:01:26.734Z,98593.09
2022-12-19T18:03:56.401Z,98595.63
2022-12-19T18:06:24.757Z,98587.84
2022-12-19T18:08:53.060Z,98593.09
2022-12-19T18:11:25.045Z,98586.25
2022-12-19T18:13:54.720Z,98576.81
2022-12-19T18:16:30.887Z,98573.50
2022-12-19T18:18:59.394Z,98565.00
2022-12-19T18:21:27.762Z,98572.94
2022-12-19T18:23:56.107Z,98575.66
2022-12-19T18:26:24.738Z,98574.94
2022-12-19T18:28:54.489Z,98562.00
2022-12-19T18:31:27.310Z,98570.94
2022-12-19T18:34:00.852Z,98553.78
2022-12-19T18:36:41.743Z,98554.00
2022-12-19T18:39:21.059Z,98556.72
2022-12-19T18:41:50.155Z,98568.19
2022-12-19T18:44:18.861Z,98557.78
2022-12-19T18:46:50.893Z,98547.41
2022-12-19T18:49:19.898Z,98532.69
2022-12-19T18:51:48.318Z,98524.81
2022-12-19T18:54:19.476Z,98523.13
2022-12-19T18:56:48.070Z,98515.28
2022-12-19T18:59:16.426Z,98517.97
2022-12-19T19:01:48.398Z,98515.44
2022-12-19T19:04:18.116Z,98507.66
2022-12-19T19:06:51.565Z,98513.84
2022-12-19T19:09:22.605Z,98502.59
2022-12-19T19:11:50.941Z,98507.91
2022-12-19T19:14:19.302Z,98522.66
2022-12-19T19:16:49.098Z,98514.97
2022-12-19T19:19:19.615Z,98528.91
2022-12-19T19:21:48.182Z,98521.13
2022-12-19T19:24:19.070Z,98515.13
2022-12-19T19:26:49.682Z,98512.56
2022-12-19T19:29:19.558Z,98524.75
2022-12-19T19:31:51.511Z,98523.03
2022-12-19T19:34:23.335Z,98512.66
2022-12-19T19:36:56.055Z,98511.91
2022-12-19T19:39:25.100Z,98511.13
2022-12-19T19:41:53.723Z,98520.72
2022-12-19T19:44:22.104Z,98517.38
2022-12-19T19:46:52.044Z,98515.66
2022-12-19T19:49:21.869Z,98525.22
2022-12-19T19:51:50.387Z,98521.81
2022-12-19T19:54:19.119Z,98520.13
2022-12-19T19:56:47.440Z,98526.28
2022-12-19T19:59:15.835Z,98556.81
2022-12-19T20:01:44.284Z,98551.91
2022-12-19T20:04:14.204Z,98546.03
2022-12-19T20:06:42.515Z,98535.72
2022-12-19T20:09:10.779Z,98539.41
2022-12-19T20:11:39.120Z,98527.41
2022-12-19T20:14:07.535Z,98519.72
2022-12-19T20:16:36.608Z,98518.94
2022-12-19T20:19:05.076Z,98519.06
2022-12-19T20:21:34.821Z,98519.13
2022-12-19T20:24:03.330Z,98523.59
2022-12-19T20:26:32.181Z,98520.16
2022-12-19T20:29:00.495Z,98522.06
2022-12-19T20:31:29.016Z,98524.66
2022-12-19T20:33:57.727Z,98536.06
2022-12-19T20:36:26.283Z,98538.75
2022-12-19T20:38:56.341Z,98530.09
2022-12-19T20:41:24.696Z,98538.88
2022-12-19T20:43:54.272Z,98537.16
2022-12-19T20:46:24.129Z,98538.16
2022-12-19T20:48:53.996Z,98546.00
2022-12-19T20:51:23.077Z,98538.31
2022-12-19T20:53:55.650Z,98542.72
2022-12-19T20:56:25.918Z,98543.59
2022-12-19T20:58:54.798Z,98546.22
2022-12-19T21:01:26.306Z,98544.59
2022-12-19T21:03:54.897Z,98535.16
2022-12-19T21:06:27.155Z,98533.44
2022-12-19T21:08:57.780Z,98536.97
2022-12-19T21:11:27.376Z,98523.13
2022-12-19T21:13:56.055Z,98512.00
2022-12-19T21:16:25.127Z,98513.75
2022-12-19T21:18:53.599Z,98510.28
2022-12-19T21:21:25.282Z,98521.66
2022-12-19T21:23:54.636Z,98526.88
2022-12-19T21:26:26.981Z,98518.31
2022-12-19T21:28:57.974Z,98519.25
2022-12-19T21:31:29.807Z,98524.47
2022-12-19T21:34:01.037Z,98517.66
2022-12-19T21:36:31.136Z,98515.09
2022-12-19T21:39:01.987Z,98523.84
2022-12-19T21:41:32.547Z,98522.16
2022-12-19T21:44:01.502Z,98516.22
2022-12-19T21:46:33.137Z,98511.91
2022-12-19T21:49:03.365Z,98493.69
2022-12-19T21:51:33.221Z,98499.00
2022-12-19T21:54:03.637Z,98505.97
2022-12-19T21:56:36.413Z,98513.88
2022-12-19T21:59:07.743Z,98500.88
2022-12-19T22:01:36.368Z,98505.34
2022-12-19T22:04:08.135Z,98507.97
2022-12-19T22:06:38.867Z,98507.09
2022-12-19T22:09:10.115Z,98505.41
2022-12-19T22:11:39.998Z,98505.41
2022-12-19T22:14:08.704Z,98508.84
2022-12-19T22:16:37.595Z,98504.50
2022-12-19T22:19:06.788Z,98482.91
2022-12-19T22:21:35.491Z,98494.19
2022-12-19T22:24:06.059Z,98500.19
2022-12-19T22:26:35.514Z,98496.78
2022-12-19T22:29:10.172Z,98507.97
2022-12-19T22:31:40.056Z,98508.78
2022-12-19T22:34:11.665Z,98500.88
2022-12-19T22:36:41.904Z,98496.66
2022-12-19T22:39:13.296Z,98501.03
2022-12-19T22:41:42.899Z,98488.19
2022-12-19T22:44:18.368Z,98486.28
2022-12-19T22:46:46.944Z,98478.44
2022-12-19T22:49:15.631Z,98470.59
2022-12-19T22:51:43.889Z,98468.00
2022-12-19T22:54:12.682Z,98474.06
2022-12-19T22:56:41.250Z,98471.47
2022-12-19T22:59:11.165Z,98469.75
2022-12-19T23:01:42.914Z,98472.28
2022-12-19T23:04:16.467Z,98475.75
2022-12-19T23:06:45.565Z,98473.16
2022-12-19T23:09:17.111Z,98470.53
2022-12-19T23:11:50.172Z,98483.59
2022-12-19T23:14:20.833Z,98491.44
2022-12-19T23:16:51.181Z,98483.66
2022-12-19T23:19:19.602Z,98487.81
2022-12-19T23:21:48.075Z,98492.16
2022-12-19T23:24:16.724Z,98486.91
2022-12-19T23:26:45.116Z,98487.75
2022-12-19T23:29:16.236Z,98489.53
2022-12-19T23:31:48.976Z,98492.06
2022-12-19T23:34:18.055Z,98492.84
2022-12-19T23:39:35.577Z,98482.31
2022-12-19T23:42:03.974Z,98491.00
2022-12-19T23:44:32.372Z,98475.34
2022-12-19T23:47:03.833Z,98477.88
2022-12-19T23:49:33.116Z,98470.91
2022-12-19T23:52:01.517Z,98470.75
2022-12-19T23:54:29.915Z,98465.53
2022-12-19T23:56:58.247Z,98456.75
2022-12-19T23:59:26.595Z,98453.28
